sensor_id;sensor_type;location;lat;lon;timestamp;pressure;altitude;pressure_sealevel;temperature;humidity
32638;BME280;19045;52.268;10.506;2023-04-22T00:01:50;100244.13;;;13.45;55.51
32638;BME280;19045;52.268;10.506;2023-04-22T00:04:16;100233.09;;;13.42;56.04
32638;BME280;19045;52.268;10.506;2023-04-22T00:06:45;100244.13;;;13.45;55.93
32638;BME280;19045;52.268;10.506;2023-04-22T00:09:12;100236.22;;;13.54;55.23
32638;BME280;19045;52.268;10.506;2023-04-22T00:11:39;100231.72;;;13.44;55.90
32638;BME280;19045;52.268;10.506;2023-04-22T00:14:06;100238.47;;;13.42;55.88
32638;BME280;19045;52.268;10.506;2023-04-22T00:16:33;100229.81;;;13.45;55.76
32638;BME280;19045;52.268;10.506;2023-04-22T00:19:00;100225.00;;;13.37;55.64
32638;BME280;19045;52.268;10.506;2023-04-22T00:21:26;100225.56;;;13.34;56.00
32638;BME280;19045;52.268;10.506;2023-04-22T00:23:53;100231.78;;;13.34;56.38
32638;BME280;19045;52.268;10.506;2023-04-22T00:26:20;100221.56;;;13.26;57.10
32638;BME280;19045;52.268;10.506;2023-04-22T00:28:47;100205.06;;;13.33;56.91
32638;BME280;19045;52.268;10.506;2023-04-22T00:31:14;100206.75;;;13.29;56.49
32638;BME280;19045;52.268;10.506;2023-04-22T00:33:41;100209.19;;;13.25;56.85
32638;BME280;19045;52.268;10.506;2023-04-22T00:36:07;100208.94;;;13.22;56.86
32638;BME280;19045;52.268;10.506;2023-04-22T00:38:34;100215.16;;;13.17;56.86
32638;BME280;19045;52.268;10.506;2023-04-22T00:41:01;100208.88;;;13.27;56.34
32638;BME280;19045;52.268;10.506;2023-04-22T00:43:28;100211.06;;;13.25;56.13
32638;BME280;19045;52.268;10.506;2023-04-22T00:45:57;100206.25;;;13.22;56.41
32638;BME280;19045;52.268;10.506;2023-04-22T00:48:23;100208.13;;;13.21;56.43
32638;BME280;19045;52.268;10.506;2023-04-22T00:50:50;100183.84;;;13.21;56.30
32638;BME280;19045;52.268;10.506;2023-04-22T00:53:17;100185.75;;;13.16;56.58
32638;BME280;19045;52.268;10.506;2023-04-22T00:55:44;100189.75;;;13.28;55.87
32638;BME280;19045;52.268;10.506;2023-04-22T00:58:11;100180.09;;;13.17;56.72
32638;BME280;19045;52.268;10.506;2023-04-22T01:00:37;100191.72;;;13.13;56.85
32638;BME280;19045;52.268;10.506;2023-04-22T01:03:06;100187.13;;;13.08;56.84
32638;BME280;19045;52.268;10.506;2023-04-22T01:05:33;100176.94;;;13.00;56.77
32638;BME280;19045;52.268;10.506;2023-04-22T01:08:00;100180.75;;;12.94;57.22
32638;BME280;19045;52.268;10.506;2023-04-22T01:10:27;100182.56;;;13.04;56.77
32638;BME280;19045;52.268;10.506;2023-04-22T01:12:54;100189.03;;;13.08;56.82
32638;BME280;19045;52.268;10.506;2023-04-22T01:15:21;100183.94;;;13.01;56.76
32638;BME280;19045;52.268;10.506;2023-04-22T01:17:47;100187.16;;;13.03;56.62
32638;BME280;19045;52.268;10.506;2023-04-22T01:20:16;100188.28;;;12.97;56.62
32638;BME280;19045;52.268;10.506;2023-04-22T01:22:44;100187.22;;;12.93;56.93
32638;BME280;19045;52.268;10.506;2023-04-22T01:25:13;100176.97;;;12.95;56.87
32638;BME280;19045;52.268;10.506;2023-04-22T01:27:40;100181.81;;;12.93;57.56
32638;BME280;19045;52.268;10.506;2023-04-22T01:30:08;100179.66;;;12.95;57.10
32638;BME280;19045;52.268;10.506;2023-04-22T01:32:35;100184.81;;;12.91;57.32
32638;BME280;19045;52.268;10.506;2023-04-22T01:35:03;100188.63;;;12.85;57.95
32638;BME280;19045;52.268;10.506;2023-04-22T01:37:30;100191.06;;;12.82;58.08
32638;BME280;19045;52.268;10.506;2023-04-22T01:39:57;100183.53;;;12.79;58.01
32638;BME280;19045;52.268;10.506;2023-04-22T01:42:25;100174.34;;;12.80;58.47
32638;BME280;19045;52.268;10.506;2023-04-22T01:44:52;100175.19;;;12.75;58.14
32638;BME280;19045;52.268;10.506;2023-04-22T01:47:20;100178.16;;;12.79;58.33
32638;BME280;19045;52.268;10.506;2023-04-22T01:49:46;100180.03;;;12.78;58.42
32638;BME280;19045;52.268;10.506;2023-04-22T01:52:13;100180.28;;;12.77;58.87
32638;BME280;19045;52.268;10.506;2023-04-22T01:54:41;100191.38;;;12.70;58.66
32638;BME280;19045;52.268;10.506;2023-04-22T01:57:09;100203.81;;;12.61;59.27
32638;BME280;19045;52.268;10.506;2023-04-22T01:59:39;100185.50;;;12.58;59.67
32638;BME280;19045;52.268;10.506;2023-04-22T02:02:06;100187.13;;;12.59;59.55
32638;BME280;19045;52.268;10.506;2023-04-22T02:04:32;100169.91;;;12.50;60.15
32638;BME280;19045;52.268;10.506;2023-04-22T02:06:59;100174.00;;;12.42;60.61
32638;BME280;19045;52.268;10.506;2023-04-22T02:09:25;100190.69;;;12.39;61.54
32638;BME280;19045;52.268;10.506;2023-04-22T02:11:52;100186.09;;;12.40;61.36
32638;BME280;19045;52.268;10.506;2023-04-22T02:14:19;100192.06;;;12.27;62.14
32638;BME280;19045;52.268;10.506;2023-04-22T02:16:47;100186.41;;;12.23;62.12
32638;BME280;19045;52.268;10.506;2023-04-22T02:19:13;100189.94;;;12.19;62.39
32638;BME280;19045;52.268;10.506;2023-04-22T02:21:40;100203.69;;;12.17;62.55
32638;BME280;19045;52.268;10.506;2023-04-22T02:24:07;100188.34;;;12.08;63.76
32638;BME280;19045;52.268;10.506;2023-04-22T02:26:33;100180.31;;;12.03;63.13
32638;BME280;19045;52.268;10.506;2023-04-22T02:29:00;100183.78;;;12.08;63.10
32638;BME280;19045;52.268;10.506;2023-04-22T02:31:27;100177.88;;;12.06;63.89
32638;BME280;19045;52.268;10.506;2023-04-22T02:33:55;100185.94;;;12.01;63.75
32638;BME280;19045;52.268;10.506;2023-04-22T02:36:22;100180.56;;;12.01;64.00
32638;BME280;19045;52.268;10.506;2023-04-22T02:38:52;100174.94;;;11.93;63.74
32638;BME280;19045;52.268;10.506;2023-04-22T02:41:19;100171.16;;;11.88;64.03
32638;BME280;19045;52.268;10.506;2023-04-22T02:43:45;100176.81;;;11.92;64.23
32638;BME280;19045;52.268;10.506;2023-04-22T02:46:14;100170.34;;;11.88;64.38
32638;BME280;19045;52.268;10.506;2023-04-22T02:48:41;100170.06;;;11.95;64.77
32638;BME280;19045;52.268;10.506;2023-04-22T02:51:10;100156.91;;;11.88;64.53
32638;BME280;19045;52.268;10.506;2023-04-22T02:53:36;100159.06;;;11.81;64.91
32638;BME280;19045;52.268;10.506;2023-04-22T02:56:04;100151.50;;;11.88;64.43
32638;BME280;19045;52.268;10.506;2023-04-22T02:58:31;100143.97;;;11.85;64.90
32638;BME280;19045;52.268;10.506;2023-04-22T03:00:57;100143.97;;;11.85;64.65
32638;BME280;19045;52.268;10.506;2023-04-22T03:03:24;100142.38;;;11.74;65.49
32638;BME280;19045;52.268;10.506;2023-04-22T03:05:50;100135.91;;;11.80;64.58
32638;BME280;19045;52.268;10.506;2023-04-22T03:08:19;100141.03;;;11.71;64.98
32638;BME280;19045;52.268;10.506;2023-04-22T03:10:45;100134.03;;;11.65;65.64
32638;BME280;19045;52.268;10.506;2023-04-22T03:13:12;100141.56;;;11.63;65.51
32638;BME280;19045;52.268;10.506;2023-04-22T03:15:39;100139.94;;;11.62;65.76
32638;BME280;19045;52.268;10.506;2023-04-22T03:18:06;100138.06;;;11.58;65.67
32638;BME280;19045;52.268;10.506;2023-04-22T03:20:33;100135.38;;;11.63;66.27
32638;BME280;19045;52.268;10.506;2023-04-22T03:22:59;100132.16;;;11.66;65.97
32638;BME280;19045;52.268;10.506;2023-04-22T03:25:27;100130.53;;;11.60;65.49
32638;BME280;19045;52.268;10.506;2023-04-22T03:27:54;100125.16;;;11.65;65.81
32638;BME280;19045;52.268;10.506;2023-04-22T03:30:21;100123.53;;;11.59;65.52
32638;BME280;19045;52.268;10.506;2023-04-22T03:32:49;100126.75;;;11.61;65.54
32638;BME280;19045;52.268;10.506;2023-04-22T03:35:17;100123.25;;;11.60;65.50
32638;BME280;19045;52.268;10.506;2023-04-22T03:37:44;100121.09;;;11.57;65.94
32638;BME280;19045;52.268;10.506;2023-04-22T03:40:11;100129.72;;;11.64;65.18
32638;BME280;19045;52.268;10.506;2023-04-22T03:42:41;100127.56;;;11.61;65.66
32638;BME280;19045;52.268;10.506;2023-04-22T03:45:09;100119.22;;;11.58;65.46
32638;BME280;19045;52.268;10.506;2023-04-22T03:47:35;100128.38;;;11.62;65.93
32638;BME280;19045;52.268;10.506;2023-04-22T03:50:02;100111.16;;;11.58;66.03
32638;BME280;19045;52.268;10.506;2023-04-22T03:52:29;100112.50;;;11.55;66.26
32638;BME280;19045;52.268;10.506;2023-04-22T03:54:56;100118.16;;;11.59;66.12
32638;BME280;19045;52.268;10.506;2023-04-22T03:57:22;100122.47;;;11.45;67.01
32638;BME280;19045;52.268;10.506;2023-04-22T03:59:50;100121.41;;;11.46;66.99
32638;BME280;19045;52.268;10.506;2023-04-22T04:02:17;100119.25;;;11.53;66.82
32638;BME280;19045;52.268;10.506;2023-04-22T04:04:43;100126.75;;;11.51;66.61
32638;BME280;19045;52.268;10.506;2023-04-22T04:07:13;100125.44;;;11.48;66.92
32638;BME280;19045;52.268;10.506;2023-04-22T04:09:40;100123.25;;;11.50;66.46
32638;BME280;19045;52.268;10.506;2023-04-22T04:12:06;100124.63;;;11.53;66.44
32638;BME280;19045;52.268;10.506;2023-04-22T04:14:33;100127.59;;;11.46;66.97
32638;BME280;19045;52.268;10.506;2023-04-22T04:17:02;100134.31;;;11.49;66.36
32638;BME280;19045;52.268;10.506;2023-04-22T04:19:47;100131.63;;;11.49;66.97
32638;BME280;19045;52.268;10.506;2023-04-22T04:22:14;100137.53;;;11.40;67.19
32638;BME280;19045;52.268;10.506;2023-04-22T04:24:41;100128.41;;;11.47;67.09
32638;BME280;19045;52.268;10.506;2023-04-22T04:27:08;100133.50;;;11.48;67.42
32638;BME280;19045;52.268;10.506;2023-04-22T04:29:36;100141.84;;;11.41;67.67
32638;BME280;19045;52.268;10.506;2023-04-22T04:32:04;100135.66;;;11.51;66.78
32638;BME280;19045;52.268;10.506;2023-04-22T04:34:32;100141.03;;;11.46;66.97
32638;BME280;19045;52.268;10.506;2023-04-22T04:36:59;100130.00;;;11.48;67.87
32638;BME280;19045;52.268;10.506;2023-04-22T04:39:27;100137.78;;;11.44;68.11
32638;BME280;19045;52.268;10.506;2023-04-22T04:41:53;100132.97;;;11.41;67.59
32638;BME280;19045;52.268;10.506;2023-04-22T04:44:22;100128.13;;;11.43;67.84
32638;BME280;19045;52.268;10.506;2023-04-22T04:46:50;100140.22;;;11.40;67.55
32638;BME280;19045;52.268;10.506;2023-04-22T04:49:20;100131.09;;;11.47;68.31
32638;BME280;19045;52.268;10.506;2023-04-22T04:51:47;100129.47;;;11.51;67.63
32638;BME280;19045;52.268;10.506;2023-04-22T04:54:13;100130.28;;;11.56;67.21
32638;BME280;19045;52.268;10.506;2023-04-22T04:56:40;100129.47;;;11.51;67.41
32638;BME280;19045;52.268;10.506;2023-04-22T04:59:07;100134.31;;;11.59;67.28
32638;BME280;19045;52.268;10.506;2023-04-22T05:01:33;100130.28;;;11.66;67.15
32638;BME280;19045;52.268;10.506;2023-04-22T05:04:00;100135.38;;;11.83;66.91
32638;BME280;19045;52.268;10.506;2023-04-22T05:06:28;100127.03;;;11.84;65.77
32638;BME280;19045;52.268;10.506;2023-04-22T05:08:55;100125.09;;;12.00;65.83
32638;BME280;19045;52.268;10.506;2023-04-22T05:11:22;100130.72;;;12.19;64.95
32638;BME280;19045;52.268;10.506;2023-04-22T05:13:48;100133.06;;;12.35;64.64
32638;BME280;19045;52.268;10.506;2023-04-22T05:16:15;100121.75;;;12.33;64.13
32638;BME280;19045;52.268;10.506;2023-04-22T05:18:42;100124.94;;;12.46;63.51
32638;BME280;19045;52.268;10.506;2023-04-22T05:21:08;100121.91;;;12.62;63.26
32638;BME280;19045;52.268;10.506;2023-04-22T05:23:37;100115.34;;;12.73;61.88
32638;BME280;19045;52.268;10.506;2023-04-22T05:26:03;100112.88;;;12.82;62.33
32638;BME280;19045;52.268;10.506;2023-04-22T05:28:30;100118.94;;;13.03;61.45
32638;BME280;19045;52.268;10.506;2023-04-22T05:30:58;100110.03;;;13.12;60.68
32638;BME280;19045;52.268;10.506;2023-04-22T05:33:25;100114.78;;;13.20;60.62
32638;BME280;19045;52.268;10.506;2023-04-22T05:35:52;100121.81;;;13.21;60.32
32638;BME280;19045;52.268;10.506;2023-04-22T05:38:19;100114.22;;;13.28;60.48
32638;BME280;19045;52.268;10.506;2023-04-22T05:40:47;100115.63;;;13.50;59.24
32638;BME280;19045;52.268;10.506;2023-04-22T05:43:13;100120.22;;;13.49;60.05
32638;BME280;19045;52.268;10.506;2023-04-22T05:45:40;100121.38;;;13.72;59.10
32638;BME280;19045;52.268;10.506;2023-04-22T05:48:07;100116.84;;;13.91;58.40
32638;BME280;19045;52.268;10.506;2023-04-22T05:50:33;100115.09;;;14.05;57.68
32638;BME280;19045;52.268;10.506;2023-04-22T05:53:00;100116.63;;;14.11;57.35
32638;BME280;19045;52.268;10.506;2023-04-22T05:55:26;100114.75;;;14.12;57.96
32638;BME280;19045;52.268;10.506;2023-04-22T05:57:54;100108.91;;;14.23;57.63
32638;BME280;19045;52.268;10.506;2023-04-22T06:00:21;100111.09;;;14.21;57.32
32638;BME280;19045;52.268;10.506;2023-04-22T06:02:47;100104.00;;;14.25;57.54
32638;BME280;19045;52.268;10.506;2023-04-22T06:05:14;100122.22;;;14.43;56.50
32638;BME280;19045;52.268;10.506;2023-04-22T06:07:41;100114.47;;;14.56;56.35
32638;BME280;19045;52.268;10.506;2023-04-22T06:10:08;100123.69;;;14.73;56.09
32638;BME280;19045;52.268;10.506;2023-04-22T06:12:34;100112.97;;;14.87;55.60
32638;BME280;19045;52.268;10.506;2023-04-22T06:15:03;100112.38;;;14.71;55.90
32638;BME280;19045;52.268;10.506;2023-04-22T06:17:30;100124.16;;;14.80;55.87
32638;BME280;19045;52.268;10.506;2023-04-22T06:19:57;100119.00;;;14.79;56.36
32638;BME280;19045;52.268;10.506;2023-04-22T06:22:24;100114.41;;;14.98;55.40
32638;BME280;19045;52.268;10.506;2023-04-22T06:24:50;100114.91;;;15.19;55.19
32638;BME280;19045;52.268;10.506;2023-04-22T06:27:18;100115.22;;;15.17;54.97
32638;BME280;19045;52.268;10.506;2023-04-22T06:29:45;100116.13;;;15.26;54.84
32638;BME280;19045;52.268;10.506;2023-04-22T06:32:13;100117.00;;;15.40;54.73
32638;BME280;19045;52.268;10.506;2023-04-22T06:34:39;100120.41;;;15.46;54.63
32638;BME280;19045;52.268;10.506;2023-04-22T06:37:06;100117.66;;;15.65;53.73
32638;BME280;19045;52.268;10.506;2023-04-22T06:39:33;100118.00;;;15.77;53.27
32638;BME280;19045;52.268;10.506;2023-04-22T06:41:59;100114.22;;;16.05;53.21
32638;BME280;19045;52.268;10.506;2023-04-22T06:44:26;100113.00;;;16.38;52.24
32638;BME280;19045;52.268;10.506;2023-04-22T06:46:53;100113.91;;;16.61;51.67
32638;BME280;19045;52.268;10.506;2023-04-22T06:49:21;100108.88;;;16.68;51.83
32638;BME280;19045;52.268;10.506;2023-04-22T06:51:47;100113.38;;;16.73;50.93
32638;BME280;19045;52.268;10.506;2023-04-22T06:54:14;100100.22;;;16.80;50.71
32638;BME280;19045;52.268;10.506;2023-04-22T06:56:40;100105.03;;;16.83;50.83
32638;BME280;19045;52.268;10.506;2023-04-22T06:59:07;100107.59;;;16.88;50.88
32638;BME280;19045;52.268;10.506;2023-04-22T07:01:34;100099.59;;;16.83;50.66
32638;BME280;19045;52.268;10.506;2023-04-22T07:04:00;100096.94;;;16.91;50.88
32638;BME280;19045;52.268;10.506;2023-04-22T07:06:28;100097.13;;;16.73;51.32
32638;BME280;19045;52.268;10.506;2023-04-22T07:08:55;100097.69;;;17.05;50.44
32638;BME280;19045;52.268;10.506;2023-04-22T07:11:21;100097.81;;;17.45;50.00
32638;BME280;19045;52.268;10.506;2023-04-22T07:13:48;100105.16;;;17.44;49.81
32638;BME280;19045;52.268;10.506;2023-04-22T07:16:15;100092.69;;;17.43;49.87
32638;BME280;19045;52.268;10.506;2023-04-22T07:18:41;100093.19;;;17.45;49.81
32638;BME280;19045;52.268;10.506;2023-04-22T07:21:08;100087.63;;;17.73;49.27
32638;BME280;19045;52.268;10.506;2023-04-22T07:23:36;100082.31;;;18.07;48.73
32638;BME280;19045;52.268;10.506;2023-04-22T07:26:02;100086.94;;;18.63;47.76
32638;BME280;19045;52.268;10.506;2023-04-22T07:28:29;100085.03;;;18.89;46.80
32638;BME280;19045;52.268;10.506;2023-04-22T07:30:56;100092.72;;;19.04;46.42
32638;BME280;19045;52.268;10.506;2023-04-22T07:33:22;100085.97;;;19.19;45.95
32638;BME280;19045;52.268;10.506;2023-04-22T07:35:49;100091.44;;;19.10;45.96
32638;BME280;19045;52.268;10.506;2023-04-22T07:38:16;100082.97;;;18.95;46.10
32638;BME280;19045;52.268;10.506;2023-04-22T07:40:44;100077.03;;;19.19;45.87
32638;BME280;19045;52.268;10.506;2023-04-22T07:43:11;100083.25;;;19.28;45.38
32638;BME280;19045;52.268;10.506;2023-04-22T07:45:37;100081.19;;;19.16;45.36
32638;BME280;19045;52.268;10.506;2023-04-22T07:48:04;100075.72;;;19.16;45.59
32638;BME280;19045;52.268;10.506;2023-04-22T07:50:30;100082.91;;;19.29;45.73
32638;BME280;19045;52.268;10.506;2023-04-22T07:52:57;100077.78;;;19.53;45.23
32638;BME280;19045;52.268;10.506;2023-04-22T07:55:24;100082.72;;;19.60;45.12
32638;BME280;19045;52.268;10.506;2023-04-22T07:57:52;100084.69;;;19.97;44.73
32638;BME280;19045;52.268;10.506;2023-04-22T08:00:19;100080.50;;;20.00;44.58
32638;BME280;19045;52.268;10.506;2023-04-22T08:02:46;100079.03;;;20.40;43.69
32638;BME280;19045;52.268;10.506;2023-04-22T08:05:12;100084.78;;;20.68;43.48
32638;BME280;19045;52.268;10.506;2023-04-22T08:07:40;100075.22;;;20.33;43.48
32638;BME280;19045;52.268;10.506;2023-04-22T08:10:08;100073.56;;;20.11;43.99
32638;BME280;19045;52.268;10.506;2023-04-22T08:12:35;100064.41;;;19.69;44.92
32638;BME280;19045;52.268;10.506;2023-04-22T08:15:04;100071.66;;;19.65;45.16
32638;BME280;19045;52.268;10.506;2023-04-22T08:17:31;100069.94;;;19.90;44.88
32638;BME280;19045;52.268;10.506;2023-04-22T08:19:58;100072.38;;;19.91;44.93
32638;BME280;19045;52.268;10.506;2023-04-22T08:22:24;100070.41;;;20.30;44.20
32638;BME280;19045;52.268;10.506;2023-04-22T08:24:51;100071.97;;;20.39;44.14
32638;BME280;19045;52.268;10.506;2023-04-22T08:27:20;100068.47;;;20.59;43.89
32638;BME280;19045;52.268;10.506;2023-04-22T08:29:47;100064.16;;;20.29;44.44
32638;BME280;19045;52.268;10.506;2023-04-22T08:32:15;100059.38;;;20.88;44.12
32638;BME280;19045;52.268;10.506;2023-04-22T08:34:43;100060.63;;;21.32;42.73
32638;BME280;19045;52.268;10.506;2023-04-22T08:37:12;100058.31;;;21.01;42.83
32638;BME280;19045;52.268;10.506;2023-04-22T08:39:39;100064.88;;;20.68;44.22
32638;BME280;19045;52.268;10.506;2023-04-22T08:42:06;100052.22;;;20.63;44.04
32638;BME280;19045;52.268;10.506;2023-04-22T08:44:34;100048.09;;;20.57;44.14
32638;BME280;19045;52.268;10.506;2023-04-22T08:47:02;100053.06;;;20.55;44.19
32638;BME280;19045;52.268;10.506;2023-04-22T08:49:30;100049.41;;;20.72;44.30
32638;BME280;19045;52.268;10.506;2023-04-22T08:51:56;100054.53;;;20.52;45.17
32638;BME280;19045;52.268;10.506;2023-04-22T08:54:23;100058.19;;;20.98;44.20
32638;BME280;19045;52.268;10.506;2023-04-22T08:56:50;100054.97;;;21.61;43.08
32638;BME280;19045;52.268;10.506;2023-04-22T08:59:17;100047.75;;;21.90;42.55
32638;BME280;19045;52.268;10.506;2023-04-22T09:01:48;100044.97;;;21.53;42.78
32638;BME280;19045;52.268;10.506;2023-04-22T09:04:17;100050.44;;;21.78;42.55
32638;BME280;19045;52.268;10.506;2023-04-22T09:06:45;100039.53;;;22.26;41.96
32638;BME280;19045;52.268;10.506;2023-04-22T09:09:12;100040.69;;;23.05;40.72
32638;BME280;19045;52.268;10.506;2023-04-22T09:11:39;100046.13;;;23.92;39.15
32638;BME280;19045;52.268;10.506;2023-04-22T09:14:06;100035.66;;;24.83;37.93
32638;BME280;19045;52.268;10.506;2023-04-22T09:16:33;100039.63;;;25.46;35.80
32638;BME280;19045;52.268;10.506;2023-04-22T09:19:05;100033.88;;;26.23;34.87
32638;BME280;19045;52.268;10.506;2023-04-22T09:21:32;100034.75;;;26.04;35.01
32638;BME280;19045;52.268;10.506;2023-04-22T09:24:00;100042.13;;;26.23;35.05
32638;BME280;19045;52.268;10.506;2023-04-22T09:26:27;100041.44;;;27.22;33.63
32638;BME280;19045;52.268;10.506;2023-04-22T09:28:55;100034.53;;;26.72;34.17
32638;BME280;19045;52.268;10.506;2023-04-22T09:31:24;100037.06;;;26.81;34.12
32638;BME280;19045;52.268;10.506;2023-04-22T09:33:53;100030.31;;;27.12;33.63
32638;BME280;19045;52.268;10.506;2023-04-22T09:36:21;100024.22;;;27.73;32.33
32638;BME280;19045;52.268;10.506;2023-04-22T09:38:52;100027.09;;;27.87;32.51
32638;BME280;19045;52.268;10.506;2023-04-22T09:41:26;100020.63;;;28.89;31.45
32638;BME280;19045;52.268;10.506;2023-04-22T09:43:54;100024.69;;;29.23;30.57
32638;BME280;19045;52.268;10.506;2023-04-22T09:46:22;100019.22;;;29.58;30.74
32638;BME280;19045;52.268;10.506;2023-04-22T09:48:50;100021.53;;;30.41;29.58
32638;BME280;19045;52.268;10.506;2023-04-22T09:51:18;100017.94;;;31.38;28.53
32638;BME280;19045;52.268;10.506;2023-04-22T09:53:56;100014.38;;;32.30;27.60
32638;BME280;19045;52.268;10.506;2023-04-22T09:59:27;100006.22;;;31.06;28.58
32638;BME280;19045;52.268;10.506;2023-04-22T10:01:58;100000.06;;;31.91;27.87
32638;BME280;19045;52.268;10.506;2023-04-22T10:04:25;99992.91;;;32.31;27.28
32638;BME280;19045;52.268;10.506;2023-04-22T10:06:53;99993.41;;;31.81;27.81
32638;BME280;19045;52.268;10.506;2023-04-22T10:09:22;100000.66;;;31.09;28.93
32638;BME280;19045;52.268;10.506;2023-04-22T10:11:49;99989.44;;;32.23;27.98
32638;BME280;19045;52.268;10.506;2023-04-22T10:14:16;99980.25;;;32.26;27.79
32638;BME280;19045;52.268;10.506;2023-04-22T10:16:46;99977.66;;;33.83;26.03
32638;BME280;19045;52.268;10.506;2023-04-22T10:19:15;99971.44;;;34.77;25.13
32638;BME280;19045;52.268;10.506;2023-04-22T10:21:44;99971.28;;;34.85;25.10
32638;BME280;19045;52.268;10.506;2023-04-22T10:24:15;99959.13;;;35.11;24.71
32638;BME280;19045;52.268;10.506;2023-04-22T10:26:48;99963.00;;;35.49;24.48
32638;BME280;19045;52.268;10.506;2023-04-22T10:29:17;99956.09;;;34.86;24.94
32638;BME280;19045;52.268;10.506;2023-04-22T10:31:52;99950.97;;;33.09;26.28
32638;BME280;19045;52.268;10.506;2023-04-22T10:34:19;99963.53;;;31.44;29.08
32638;BME280;19045;52.268;10.506;2023-04-22T10:36:59;99951.81;;;32.45;28.05
32638;BME280;19045;52.268;10.506;2023-04-22T10:39:28;99956.34;;;31.47;29.17
32638;BME280;19045;52.268;10.506;2023-04-22T10:42:03;99941.25;;;30.96;29.70
32638;BME280;19045;52.268;10.506;2023-04-22T10:44:45;99929.06;;;30.76;30.20
32638;BME280;19045;52.268;10.506;2023-04-22T10:47:23;99935.72;;;29.99;31.06
32638;BME280;19045;52.268;10.506;2023-04-22T10:49:50;99942.72;;;28.69;32.45
32638;BME280;19045;52.268;10.506;2023-04-22T10:52:26;99945.63;;;28.18;33.56
32638;BME280;19045;52.268;10.506;2023-04-22T10:54:58;99938.63;;;28.38;33.78
32638;BME280;19045;52.268;10.506;2023-04-22T10:57:31;99928.84;;;28.62;33.64
32638;BME280;19045;52.268;10.506;2023-04-22T11:00:16;99941.56;;;28.77;33.42
32638;BME280;19045;52.268;10.506;2023-04-22T11:02:45;99919.59;;;28.19;33.80
32638;BME280;19045;52.268;10.506;2023-04-22T11:05:22;99934.47;;;27.97;34.39
32638;BME280;19045;52.268;10.506;2023-04-22T11:07:52;99924.97;;;27.40;35.46
32638;BME280;19045;52.268;10.506;2023-04-22T11:10:34;99910.75;;;27.41;35.75
32638;BME280;19045;52.268;10.506;2023-04-22T11:13:05;99922.34;;;26.40;37.02
32638;BME280;19045;52.268;10.506;2023-04-22T11:15:34;99911.63;;;26.64;36.99
32638;BME280;19045;52.268;10.506;2023-04-22T11:18:07;99906.53;;;27.03;36.48
32638;BME280;19045;52.268;10.506;2023-04-22T11:20:33;99898.81;;;26.83;36.65
32638;BME280;19045;52.268;10.506;2023-04-22T11:23:01;99908.59;;;26.77;35.87
32638;BME280;19045;52.268;10.506;2023-04-22T11:25:28;99896.94;;;27.38;35.40
32638;BME280;19045;52.268;10.506;2023-04-22T11:27:55;99862.81;;;27.56;35.47
32638;BME280;19045;52.268;10.506;2023-04-22T11:30:23;99889.19;;;27.50;34.96
32638;BME280;19045;52.268;10.506;2023-04-22T11:32:52;99872.84;;;27.86;35.04
32638;BME280;19045;52.268;10.506;2023-04-22T11:35:21;99885.41;;;27.72;35.22
32638;BME280;19045;52.268;10.506;2023-04-22T11:37:49;99887.41;;;27.79;34.86
32638;BME280;19045;52.268;10.506;2023-04-22T11:40:18;99878.75;;;27.88;34.75
32638;BME280;19045;52.268;10.506;2023-04-22T11:42:46;99878.00;;;27.91;34.71
32638;BME280;19045;52.268;10.506;2023-04-22T11:45:14;99871.78;;;26.95;35.41
32638;BME280;19045;52.268;10.506;2023-04-22T11:47:41;99873.69;;;26.51;36.11
32638;BME280;19045;52.268;10.506;2023-04-22T11:50:12;99880.66;;;26.41;35.73
32638;BME280;19045;52.268;10.506;2023-04-22T11:52:46;99876.25;;;26.37;34.68
32638;BME280;19045;52.268;10.506;2023-04-22T11:55:14;99871.16;;;26.39;32.81
32638;BME280;19045;52.268;10.506;2023-04-22T11:57:41;99877.34;;;25.73;35.45
32638;BME280;19045;52.268;10.506;2023-04-22T12:00:11;99868.16;;;25.88;35.05
32638;BME280;19045;52.268;10.506;2023-04-22T12:02:39;99853.66;;;26.20;34.64
32638;BME280;19045;52.268;10.506;2023-04-22T12:05:08;99853.84;;;26.08;35.33
32638;BME280;19045;52.268;10.506;2023-04-22T12:07:36;99851.34;;;26.26;35.00
32638;BME280;19045;52.268;10.506;2023-04-22T12:10:06;99860.31;;;25.90;36.09
32638;BME280;19045;52.268;10.506;2023-04-22T12:12:33;99856.03;;;25.96;35.25
32638;BME280;19045;52.268;10.506;2023-04-22T12:15:10;99851.69;;;26.21;35.12
32638;BME280;19045;52.268;10.506;2023-04-22T12:17:39;99846.38;;;26.39;35.58
32638;BME280;19045;52.268;10.506;2023-04-22T12:20:10;99852.06;;;26.19;32.48
32638;BME280;19045;52.268;10.506;2023-04-22T12:22:37;99851.09;;;26.38;31.07
32638;BME280;19045;52.268;10.506;2023-04-22T12:25:06;99846.94;;;26.55;29.51
32638;BME280;19045;52.268;10.506;2023-04-22T12:27:34;99857.09;;;26.47;29.19
32638;BME280;19045;52.268;10.506;2023-04-22T12:30:02;99827.72;;;26.25;29.37
32638;BME280;19045;52.268;10.506;2023-04-22T12:32:50;99843.66;;;26.42;29.46
32638;BME280;19045;52.268;10.506;2023-04-22T12:35:17;99845.47;;;25.98;29.38
32638;BME280;19045;52.268;10.506;2023-04-22T12:37:43;99827.06;;;25.76;29.22
32638;BME280;19045;52.268;10.506;2023-04-22T12:40:12;99846.78;;;25.25;29.37
32638;BME280;19045;52.268;10.506;2023-04-22T12:42:39;99836.06;;;25.20;29.62
32638;BME280;19045;52.268;10.506;2023-04-22T12:45:07;99834.03;;;25.66;29.15
32638;BME280;19045;52.268;10.506;2023-04-22T12:47:34;99845.13;;;25.73;28.54
32638;BME280;19045;52.268;10.506;2023-04-22T12:50:01;99841.03;;;25.60;28.98